createdAt,value
2023-05-02T00:07:17.721Z,100312.63
2023-05-02T00:12:41.734Z,100315.38
2023-05-02T00:18:05.312Z,100343.41
2023-05-02T00:23:29.206Z,100335.72
2023-05-02T00:28:53.208Z,100339.06
2023-05-02T00:34:18.617Z,100353.63
2023-05-02T00:39:44.573Z,100355.06
2023-05-02T00:45:10.502Z,100351.03
2023-05-02T00:50:40.214Z,100359.91
2023-05-02T00:56:06.806Z,100376.63
2023-05-02T01:01:49.454Z,100378.31
2023-05-02T01:07:39.125Z,100368.44
2023-05-02T01:13:22.949Z,100392.75
2023-05-02T01:18:50.824Z,100376.63
2023-05-02T01:24:43.183Z,100404.66
2023-05-02T01:30:12.273Z,100426.00
2023-05-02T01:35:40.097Z,100422.53
2023-05-02T01:41:09.414Z,100421.00
2023-05-02T01:46:37.284Z,100453.09
2023-05-02T01:52:08.296Z,100437.56
2023-05-02T01:57:35.350Z,100442.13
2023-05-02T02:03:02.268Z,100454.19
2023-05-02T02:08:28.030Z,100470.16
2023-05-02T02:14:03.623Z,100484.16
2023-05-02T02:19:49.457Z,100488.09
2023-05-02T02:25:15.812Z,100501.97
2023-05-02T02:30:42.874Z,100513.44
2023-05-02T02:36:27.892Z,100536.38
2023-05-02T02:41:59.864Z,100534.91
2023-05-02T02:47:33.951Z,100540.22
2023-05-02T02:53:20.120Z,100549.47
2023-05-02T02:58:58.084Z,100552.06
2023-05-02T03:04:26.690Z,100556.34
2023-05-02T03:09:52.272Z,100558.56
2023-05-02T03:16:01.932Z,100589.63
2023-05-02T03:21:29.820Z,100580.22
2023-05-02T03:27:02.298Z,100593.56
2023-05-02T03:32:35.077Z,100599.34
2023-05-02T03:38:01.407Z,100606.31
2023-05-02T03:43:28.374Z,100613.72
2023-05-02T03:48:54.597Z,100633.88
2023-05-02T03:54:19.732Z,100620.53
2023-05-02T03:59:47.854Z,100623.28
2023-05-02T04:05:23.194Z,100652.69
2023-05-02T04:10:47.924Z,100657.16
2023-05-02T04:16:12.044Z,100655.94
2023-05-02T04:21:41.142Z,100662.44
2023-05-02T04:27:06.374Z,100665.81
2023-05-02T04:32:34.102Z,100661.09
2023-05-02T04:38:01.898Z,100677.53
2023-05-02T04:43:28.810Z,100672.06
2023-05-02T04:48:58.948Z,100675.13
2023-05-02T04:54:24.060Z,100671.34
2023-05-02T04:59:49.807Z,100677.84
2023-05-02T05:05:15.723Z,100685.44
2023-05-02T05:10:45.916Z,100700.44
2023-05-02T05:16:11.945Z,100702.47
2023-05-02T05:21:39.419Z,100708.75
2023-05-02T05:27:06.196Z,100707.59
2023-05-02T05:32:31.314Z,100713.94
2023-05-02T05:37:57.602Z,100724.84
2023-05-02T05:43:23.925Z,100717.81
2023-05-02T05:48:50.296Z,100723.28
2023-05-02T05:54:15.691Z,100718.72
2023-05-02T05:59:41.134Z,100710.28
2023-05-02T06:05:08.203Z,100726.56
2023-05-02T06:10:34.752Z,100733.31
2023-05-02T06:16:04.936Z,100736.00
2023-05-02T06:21:32.631Z,100737.72
2023-05-02T06:26:58.847Z,100740.19
2023-05-02T06:32:23.763Z,100744.22
2023-05-02T06:37:48.379Z,100749.66
2023-05-02T06:43:14.706Z,100742.53
2023-05-02T06:48:39.583Z,100737.16
2023-05-02T06:54:04.312Z,100743.16
2023-05-02T06:59:28.877Z,100753.00
2023-05-02T07:04:54.554Z,100737.91
2023-05-02T07:10:21.806Z,100744.53
2023-05-02T07:15:47.052Z,100752.81
2023-05-02T07:21:11.802Z,100758.22
2023-05-02T07:26:38.069Z,100752.13
2023-05-02T07:32:03.437Z,100759.03
2023-05-02T07:37:29.158Z,100736.50
2023-05-02T07:42:55.252Z,100742.34
2023-05-02T07:48:22.417Z,100762.47
2023-05-02T07:53:47.389Z,100762.00
2023-05-02T07:59:13.732Z,100756.47
2023-05-02T08:04:37.343Z,100758.75
2023-05-02T08:10:01.501Z,100755.69
2023-05-02T08:15:26.721Z,100762.38
2023-05-02T08:20:52.840Z,100763.84
2023-05-02T08:26:18.518Z,100760.91
2023-05-02T08:31:41.931Z,100760.69
2023-05-02T08:37:13.145Z,100750.66
2023-05-02T08:42:36.670Z,100762.31
2023-05-02T08:48:01.327Z,100751.03
2023-05-02T08:53:26.536Z,100757.25
2023-05-02T08:58:49.014Z,100749.06
2023-05-02T09:04:11.987Z,100749.75
2023-05-02T09:09:35.650Z,100758.03
2023-05-02T09:15:20.736Z,100752.16
2023-05-02T09:20:46.545Z,100739.50
2023-05-02T09:26:20.858Z,100747.53
2023-05-02T09:31:55.751Z,100737.47
2023-05-02T09:37:38.128Z,100743.63
2023-05-02T09:43:00.827Z,100734.91
2023-05-02T09:48:23.068Z,100723.34
2023-05-02T09:53:45.947Z,100729.28
2023-05-02T09:59:17.943Z,100726.22
2023-05-02T10:04:40.719Z,100704.72
2023-05-02T10:10:05.999Z,100714.44
2023-05-02T10:15:32.235Z,100706.94
2023-05-02T10:20:59.697Z,100711.31
2023-05-02T10:26:24.214Z,100700.38
2023-05-02T10:31:50.278Z,100692.44
2023-05-02T10:37:15.617Z,100696.41
2023-05-02T10:42:43.809Z,100695.94
2023-05-02T10:48:19.389Z,100681.56
2023-05-02T10:53:46.947Z,100687.03
2023-05-02T10:59:31.713Z,100683.66
2023-05-02T11:05:07.687Z,100693.31
2023-05-02T12:51:42.188Z,100640.06
2023-05-02T12:57:05.508Z,100632.84
2023-05-02T13:02:28.641Z,100634.97
2023-05-02T13:07:51.537Z,100628.34
2023-05-02T13:13:13.781Z,100635.50
2023-05-02T13:18:36.153Z,100634.47
2023-05-02T13:24:00.387Z,100629.94
2023-05-02T13:29:24.006Z,100640.13
2023-05-02T13:34:46.008Z,100623.41
2023-05-02T13:40:07.992Z,100627.94
2023-05-02T13:45:30.053Z,100621.94
2023-05-02T13:50:51.896Z,100624.13
2023-05-02T13:56:14.810Z,100622.78
2023-05-02T14:01:37.486Z,100616.28
2023-05-02T14:06:59.661Z,100620.19
2023-05-02T14:12:21.997Z,100605.31
2023-05-02T14:17:44.214Z,100606.31
2023-05-02T14:23:07.589Z,100600.69
2023-05-02T14:28:30.150Z,100597.69
2023-05-02T14:33:55.962Z,100590.88
2023-05-02T14:39:19.799Z,100595.47
2023-05-02T14:44:43.352Z,100590.03
2023-05-02T14:50:07.526Z,100594.06
2023-05-02T14:55:29.771Z,100593.38
2023-05-02T15:00:52.787Z,100585.25
2023-05-02T15:06:16.318Z,100585.34
2023-05-02T15:11:39.176Z,100587.53
2023-05-02T15:17:01.856Z,100588.34
2023-05-02T15:22:26.834Z,100581.50
2023-05-02T15:27:48.896Z,100574.19
2023-05-02T15:33:10.887Z,100573.09
2023-05-02T15:38:34.829Z,100584.00
2023-05-02T15:43:57.675Z,100575.13
2023-05-02T15:49:19.432Z,100574.78
2023-05-02T15:54:41.719Z,100571.72
2023-05-02T16:00:04.357Z,100576.56
2023-05-02T16:05:29.048Z,100582.78
2023-05-02T16:10:51.658Z,100584.03
2023-05-02T16:16:14.362Z,100577.44
2023-05-02T16:21:37.483Z,100584.28
2023-05-02T16:26:59.546Z,100569.53
2023-05-02T16:32:24.429Z,100582.81
2023-05-02T16:37:47.700Z,100578.00
2023-05-02T16:43:10.416Z,100577.72
2023-05-02T16:48:32.628Z,100577.06
2023-05-02T16:53:55.377Z,100582.28
2023-05-02T16:59:18.016Z,100580.44
2023-05-02T17:04:40.095Z,100578.31
2023-05-02T17:10:02.477Z,100576.94
2023-05-02T17:15:26.042Z,100578.50
2023-05-02T17:20:48.681Z,100577.56
2023-05-02T17:26:17.590Z,100579.34
2023-05-02T17:31:39.882Z,100577.59
2023-05-02T17:37:01.776Z,100566.13
2023-05-02T17:42:23.436Z,100571.59
2023-05-02T17:47:44.917Z,100578.97
2023-05-02T17:53:07.281Z,100579.03
2023-05-02T17:58:28.828Z,100561.94
2023-05-02T18:03:50.904Z,100561.53
2023-05-02T18:09:13.233Z,100555.78
2023-05-02T18:14:35.394Z,100562.00
2023-05-02T18:19:57.199Z,100553.47
2023-05-02T18:25:18.876Z,100550.00
2023-05-02T18:30:41.596Z,100551.66
2023-05-02T18:36:03.108Z,100546.09
2023-05-02T18:41:24.807Z,100548.53
2023-05-02T18:46:46.476Z,100550.47
2023-05-02T18:52:08.025Z,100531.13
2023-05-02T18:57:29.953Z,100532.69
2023-05-02T19:02:54.677Z,100532.03
2023-05-02T19:08:16.548Z,100524.88
2023-05-02T19:13:39.224Z,100521.56
2023-05-02T19:19:03.919Z,100516.63
2023-05-02T19:24:26.150Z,100509.97
2023-05-02T19:29:47.611Z,100508.19
2023-05-02T19:35:09.728Z,100507.84
2023-05-02T19:40:33.942Z,100503.94
2023-05-02T19:45:56.175Z,100500.97
2023-05-02T19:51:22.350Z,100490.59
2023-05-02T19:56:43.909Z,100482.25
2023-05-02T20:02:06.360Z,100482.16
2023-05-02T20:07:28.775Z,100487.66
2023-05-02T20:12:50.438Z,100476.47
2023-05-02T20:18:12.550Z,100478.59
2023-05-02T20:23:35.213Z,100471.97
2023-05-02T20:28:59.798Z,100483.25
2023-05-02T20:34:21.805Z,100488.09
2023-05-02T20:39:43.389Z,100478.81
2023-05-02T20:45:07.709Z,100478.38
2023-05-02T20:50:29.818Z,100482.63
2023-05-02T20:55:51.939Z,100477.31
2023-05-02T21:01:13.925Z,100483.22
2023-05-02T21:06:35.967Z,100483.31
2023-05-02T21:11:57.764Z,100481.78
2023-05-02T21:17:19.712Z,100476.34
2023-05-02T21:22:42.793Z,100478.31
2023-05-02T21:28:06.436Z,100479.41
2023-05-02T21:33:28.762Z,100471.78
2023-05-02T21:38:51.166Z,100473.28
2023-05-02T21:44:14.625Z,100468.97
2023-05-02T21:49:36.804Z,100469.22
2023-05-02T21:54:58.829Z,100463.09
2023-05-02T22:00:21.278Z,100469.88
2023-05-02T22:05:43.350Z,100457.72
2023-05-02T22:11:11.513Z,100457.56
2023-05-02T22:16:33.664Z,100474.00
2023-05-02T22:21:57.454Z,100465.06
2023-05-02T22:27:19.538Z,100469.44
2023-05-02T22:32:42.209Z,100459.03
2023-05-02T22:38:05.430Z,100464.56
2023-05-02T22:43:27.228Z,100460.41
2023-05-02T22:48:49.955Z,100463.34
2023-05-02T22:54:11.958Z,100457.50
2023-05-02T22:59:34.038Z,100447.47
2023-05-02T23:04:55.953Z,100448.97
2023-05-02T23:10:18.135Z,100447.28
2023-05-02T23:15:40.964Z,100448.44
2023-05-02T23:21:04.334Z,100443.09
2023-05-02T23:26:26.809Z,100430.84
2023-05-02T23:31:50.583Z,100432.13
2023-05-02T23:37:13.600Z,100438.03
2023-05-02T23:42:36.537Z,100435.38
2023-05-02T23:47:58.469Z,100425.88
2023-05-02T23:53:20.537Z,100417.84
2023-05-02T23:58:43.023Z,100426.19
